Station: EHBK - 29/05/2017 09:25Z (il y a 5 minutes)
EHBK 290925Z AUTO 18007KT 140V230 9999 NSC 28/16 Q1012 NOSIG
Vent du 180º - 7 kt (vent de direction variable de 140º à 230º)
Visibilité > 10 km
Pas de nuages significatifs
Température: +28ºC - Point de rosée: +16ºC - QNH: 1012 hPa
Pas de changement significatif prévu dans les 2 heures qui suivent l'observation